Overview Statistics Trail Chart Weather Telemetry Raw packets
 

This is the latest recevied weather packets stored in our database for station/object W6JCZ-13. If no packets are shown the sender has not sent any weather packets the latest 10 day(s).

<< 37 38 39 40 41 42 43 >>
Time Temp. Humidity Pressure Rain* Wind** Luminosity Snow
1788061217 22.78° C 54% 1008.7 hPa 0 mm - - -
1788060617 23.33° C 53% 1008.6 hPa 0 mm - - -
1788060017 23.33° C 52% 1008.4 hPa 0 mm - - -
1788059417 23.89° C 50% 1008.3 hPa 0 mm - - -
1788058817 24.44° C 49% 1008.4 hPa 0 mm - - -
1788058217 25° C 48% 1008.3 hPa 0 mm - - -
1788057617 26.11° C 45% 1008.3 hPa 0 mm - - -
1788057017 26.67° C 43% 1008.2 hPa 0 mm - - -
1788056417 27.22° C 42% 1008.2 hPa 0 mm - - -
1788055817 27.78° C 41% 1008.3 hPa 0 mm - - -
1788055217 28.33° C 40% 1008.2 hPa 0 mm - - -
1788054617 28.89° C 39% 1008.3 hPa 0 mm - - -
1788054017 28.89° C 39% 1008.2 hPa 0 mm - - -
1788053417 29.44° C 38% 1008.4 hPa 0 mm - - -
1788052817 30° C 36% 1008.4 hPa 0 mm - - -
1788052217 30.56° C 34% 1008.5 hPa 0 mm - - -
1788051617 30.56° C 33% 1008.5 hPa 0 mm - - -
1788051017 31.11° C 33% 1008.5 hPa 0 mm - - -
1788050417 31.11° C 31% 1008.5 hPa 0 mm - - -
1788049817 31.11° C 30% 1008.6 hPa 0 mm - - -
1788049217 31.11° C 33% 1008.6 hPa 0 mm - - -
1788048617 31.67° C 29% 1008.7 hPa 0 mm - - -
1788048017 31.67° C 32% 1008.7 hPa 0 mm - - -
1788047427 31.67° C 32% 1008.8 hPa 0 mm - - -
1788046817 31.67° C 31% 1008.8 hPa 0 mm - - -

* Rain latest hour (hover to see other rain measurements)
** Current wind speed in m/s (hover to see current wind gust speed)